Time;durP1;ratioP1;P1;durP2;ratioP2;P2;SDS_P1;SDS_P2;PMS_P1;PMS_P2;Temp;Humidity;BMP_temperature;BMP_pressure;BME280_temperature;BME280_humidity;BME280_pressure;Samples;Min_cycle;Max_cycle;Signal;HPM_P1;HPM_P2
2022/01/29 00:01:44;;;;;;;47.58;22.77;;;;;;;5.36;100.00;102789.88;5116143;28;20085;-56
2022/01/29 00:04:16;;;;;;;44.80;23.35;;;;;;;5.43;100.00;102786.28;5115786;28;20044;-56
2022/01/29 00:06:44;;;;;;;53.27;23.80;;;;;;;5.36;100.00;102779.44;5116165;28;20093;-46
2022/01/29 00:09:14;;;;;;;49.33;23.15;;;;;;;5.34;100.00;102773.34;5115747;28;20418;-49
2022/01/29 00:11:43;;;;;;;50.33;24.95;;;;;;;5.32;100.00;102762.09;5114599;28;20058;-57
2022/01/29 00:14:12;;;;;;;51.15;24.42;;;;;;;5.37;100.00;102768.09;5115879;28;20493;-56
2022/01/29 00:16:41;;;;;;;52.65;24.67;;;;;;;5.39;100.00;102768.94;5115768;28;20046;-48
2022/01/29 00:19:09;;;;;;;54.05;26.13;;;;;;;5.35;100.00;102760.28;5115816;28;20435;-56
2022/01/29 00:21:37;;;;;;;50.95;24.85;;;;;;;5.35;100.00;102755.06;5114223;28;20043;-56
2022/01/29 00:24:06;;;;;;;53.25;26.80;;;;;;;5.28;100.00;102750.81;5115427;28;20035;-57
2022/01/29 00:26:35;;;;;;;49.83;24.35;;;;;;;5.29;100.00;102741.22;5105301;28;20501;-45
2022/01/29 00:29:09;;;;;;;56.67;26.55;;;;;;;5.34;100.00;102747.25;5093325;28;20508;-46
2022/01/29 00:31:37;;;;;;;58.15;26.33;;;;;;;5.34;100.00;102757.69;5093096;28;20498;-47
2022/01/29 00:34:06;;;;;;;54.90;26.48;;;;;;;5.34;100.00;102742.03;5093538;28;20387;-56
2022/01/29 00:36:35;;;;;;;57.45;26.80;;;;;;;5.30;100.00;102748.19;5095643;28;20078;-56
2022/01/29 00:39:03;;;;;;;52.05;25.63;;;;;;;5.28;100.00;102750.81;5093282;28;20414;-55
2022/01/29 00:41:32;;;;;;;62.95;27.70;;;;;;;5.22;100.00;102743.94;5092318;28;20449;-56
2022/01/29 00:44:00;;;;;;;58.92;27.08;;;;;;;5.25;100.00;102753.47;5052892;28;20048;-47
2022/01/29 00:46:29;;;;;;;55.35;25.52;;;;;;;5.29;100.00;102744.72;5052644;28;20053;-55
2022/01/29 00:48:57;;;;;;;57.88;27.23;;;;;;;5.19;100.00;102722.22;5052186;28;20040;-49
2022/01/29 00:51:26;;;;;;;61.38;27.40;;;;;;;5.22;100.00;102715.22;5053581;28;20511;-56
2022/01/29 00:53:54;;;;;;;58.17;26.83;;;;;;;5.17;100.00;102709.22;5054495;28;20045;-56
2022/01/29 00:56:22;;;;;;;59.95;27.30;;;;;;;5.18;100.00;102710.94;5054297;28;20049;-56
2022/01/29 00:58:50;;;;;;;55.58;28.38;;;;;;;5.16;100.00;102707.47;5054238;28;20043;-56
2022/01/29 01:01:18;;;;;;;57.67;27.27;;;;;;;5.20;100.00;102688.28;5054064;28;20049;-48
2022/01/29 01:03:46;;;;;;;62.67;28.67;;;;;;;5.13;100.00;102689.25;5054352;28;20053;-57
2022/01/29 01:06:15;;;;;;;60.00;29.25;;;;;;;5.10;100.00;102684.09;5054320;28;20094;-47
2022/01/29 01:08:44;;;;;;;65.25;29.17;;;;;;;5.17;100.00;102677.91;5054089;28;20045;-46
2022/01/29 01:11:12;;;;;;;60.53;26.40;;;;;;;5.20;100.00;102675.25;5054122;28;20068;-55
2022/01/29 01:13:40;;;;;;;56.67;27.30;;;;;;;5.19;100.00;102670.91;5053889;28;20049;-47
2022/01/29 01:16:08;;;;;;;58.30;27.40;;;;;;;5.23;100.00;102662.16;5053781;28;20053;-56
2022/01/29 01:18:36;;;;;;;58.72;26.15;;;;;;;5.19;100.00;102670.91;5053710;28;20500;-45
2022/01/29 01:21:05;;;;;;;54.92;27.73;;;;;;;5.21;100.00;102666.53;5053693;28;20053;-52
2022/01/29 01:23:33;;;;;;;60.08;27.92;;;;;;;5.24;100.00;102661.28;5053529;28;20045;-56
2022/01/29 01:26:04;;;;;;;56.95;27.17;;;;;;;5.29;100.00;102652.53;5053591;28;20053;-55
2022/01/29 01:28:32;;;;;;;61.53;27.60;;;;;;;5.23;100.00;102648.25;5053311;28;20044;-55
2022/01/29 01:31:00;;;;;;;61.15;27.25;;;;;;;5.19;100.00;102650.03;5053475;28;20383;-55
2022/01/29 01:33:29;;;;;;;55.25;27.70;;;;;;;5.21;100.00;102647.44;5053112;28;20045;-56
2022/01/29 01:36:01;;;;;;;62.58;28.48;;;;;;;5.25;100.00;102649.97;5053494;28;20049;-56
2022/01/29 01:38:36;;;;;;;55.17;27.02;;;;;;;5.35;100.00;102655.06;5053597;28;20047;-56
2022/01/29 01:41:09;;;;;;;57.08;25.67;;;;;;;5.29;100.00;102655.13;5053128;28;20053;-54
2022/01/29 01:43:37;;;;;;;57.22;26.83;;;;;;;5.31;100.00;102650.78;5087711;28;20064;-46
2022/01/29 01:46:06;;;;;;;65.20;28.42;;;;;;;5.27;100.00;102638.66;5093576;28;20044;-46
2022/01/29 01:48:34;;;;;;;53.60;25.15;;;;;;;5.31;100.00;102637.72;5093458;28;20062;-49
2022/01/29 01:51:02;;;;;;;58.35;26.50;;;;;;;5.39;100.00;102636.72;5093530;28;20060;-47
2022/01/29 01:53:30;;;;;;;56.00;26.05;;;;;;;5.36;100.00;102628.09;5093426;28;20059;-47
2022/01/29 01:55:59;;;;;;;53.03;25.70;;;;;;;5.40;100.00;102625.41;5093459;28;20124;-49
2022/01/29 01:58:28;;;;;;;60.25;26.60;;;;;;;5.39;100.00;102617.59;5093371;28;20044;-45
2022/01/29 02:00:56;;;;;;;56.58;27.67;;;;;;;5.40;100.00;102619.31;5093299;28;20559;-54
2022/01/29 02:03:24;;;;;;;61.83;27.17;;;;;;;5.38;100.00;102608.88;5093175;28;20055;-53
2022/01/29 02:05:53;;;;;;;52.80;26.27;;;;;;;5.43;100.00;102606.22;5093503;28;20070;-58
2022/01/29 02:08:22;;;;;;;54.13;26.70;;;;;;;5.39;100.00;102612.38;5091709;28;20048;-54
2022/01/29 02:10:50;;;;;;;58.08;25.85;;;;;;;5.38;100.00;102608.03;5093307;28;20056;-55
2022/01/29 02:13:19;;;;;;;58.47;28.85;;;;;;;5.36;100.00;102604.59;5093041;28;20040;-54
2022/01/29 02:15:49;;;;;;;52.38;27.20;;;;;;;5.36;100.00;102609.81;5093233;28;20048;-54
2022/01/29 02:18:17;;;;;;;50.65;26.10;;;;;;;5.34;100.00;102598.53;5093022;28;20072;-56
2022/01/29 02:20:45;;;;;;;62.42;27.58;;;;;;;5.34;100.00;102595.91;5093220;28;20032;-55
2022/01/29 02:23:17;;;;;;;51.63;25.83;;;;;;;5.38;100.00;102593.22;5092949;28;20055;-56
2022/01/29 02:25:47;;;;;;;56.72;28.38;;;;;;;5.41;100.00;102589.72;5092844;28;20052;-55
2022/01/29 02:28:17;;;;;;;50.22;26.38;;;;;;;5.39;100.00;102573.25;5092944;28;20123;-46
2022/01/29 02:30:48;;;;;;;61.55;27.40;;;;;;;5.37;100.00;102569.78;5092801;28;20507;-45
2022/01/29 02:33:18;;;;;;;62.55;27.80;;;;;;;5.41;100.00;102566.22;5092773;28;20127;-46
2022/01/29 02:35:48;;;;;;;61.13;29.13;;;;;;;5.33;100.00;102561.16;5092648;28;20048;-49
2022/01/29 02:38:21;;;;;;;59.83;28.88;;;;;;;5.34;100.00;102567.22;5092771;28;20036;-49
2022/01/29 02:40:53;;;;;;;58.00;28.75;;;;;;;5.35;100.00;102564.59;5093198;28;20124;-48
2022/01/29 02:43:26;;;;;;;66.15;30.05;;;;;;;5.34;100.00;102569.84;5092464;28;20062;-48
2022/01/29 02:45:55;;;;;;;59.13;27.58;;;;;;;5.39;100.00;102560.19;5092149;28;20510;-47
2022/01/29 02:48:24;;;;;;;57.05;27.92;;;;;;;5.37;100.00;102554.13;5092607;28;20062;-50
2022/01/29 02:50:52;;;;;;;53.70;26.77;;;;;;;5.35;100.00;102553.28;5092594;28;20048;-50
2022/01/29 02:53:22;;;;;;;56.67;28.92;;;;;;;5.36;100.00;102541.97;5090690;28;20101;-47
2022/01/29 02:55:50;;;;;;;54.25;26.90;;;;;;;5.48;100.00;102538.28;5091747;28;20051;-50
2022/01/29 02:58:18;;;;;;;53.58;27.73;;;;;;;5.45;100.00;102543.56;5091922;28;20052;-50
2022/01/29 03:00:46;;;;;;;48.97;25.50;;;;;;;5.40;100.00;102530.59;5092071;28;20059;-49
2022/01/29 03:03:14;;;;;;;53.90;26.05;;;;;;;5.41;100.00;102534.91;5092203;28;20444;-47
2022/01/29 03:05:42;;;;;;;45.20;24.52;;;;;;;5.45;100.00;102526.16;5092326;28;20517;-50
2022/01/29 03:08:10;;;;;;;51.40;25.70;;;;;;;5.44;100.00;102521.84;5092358;28;20044;-48
2022/01/29 03:10:40;;;;;;;47.42;25.40;;;;;;;5.42;100.00;102515.78;5092084;28;20101;-48
2022/01/29 03:13:08;;;;;;;47.22;24.15;;;;;;;5.44;100.00;102516.63;5092420;28;20048;-51
2022/01/29 03:15:36;;;;;;;47.22;24.60;;;;;;;5.43;100.00;102512.28;5092199;28;20078;-48
2022/01/29 03:18:05;;;;;;;47.75;23.70;;;;;;;5.48;100.00;102505.25;5092486;28;20113;-49
2022/01/29 03:20:33;;;;;;;46.60;23.80;;;;;;;5.44;100.00;102508.78;5088955;28;20082;-50
2022/01/29 03:23:01;;;;;;;49.90;24.08;;;;;;;5.41;100.00;102499.25;5088023;28;20059;-49
2022/01/29 03:25:29;;;;;;;45.65;24.65;;;;;;;5.40;100.00;102507.13;5091984;28;20052;-47
2022/01/29 03:27:59;;;;;;;44.17;23.55;;;;;;;5.40;100.00;102507.97;5092025;28;20483;-49
2022/01/29 03:30:27;;;;;;;47.72;24.90;;;;;;;5.41;100.00;102495.78;5091990;28;20040;-50
2022/01/29 03:32:55;;;;;;;45.45;23.38;;;;;;;5.41;100.00;102496.66;5091980;28;20059;-47
2022/01/29 03:35:23;;;;;;;45.10;24.38;;;;;;;5.36;100.00;102490.66;5091939;28;20055;-49
2022/01/29 03:37:51;;;;;;;38.97;21.98;;;;;;;5.42;100.00;102479.25;5091881;28;20521;-51
2022/01/29 03:40:19;;;;;;;47.72;23.70;;;;;;;5.49;100.00;102485.22;5092045;28;20113;-45
2022/01/29 03:42:59;;;;;;;46.05;23.67;;;;;;;5.45;100.00;102484.41;5091847;28;20064;-48
2022/01/29 03:45:28;;;;;;;42.25;22.80;;;;;;;5.46;100.00;102485.28;5092157;28;20360;-47
2022/01/29 03:47:56;;;;;;;44.70;22.52;;;;;;;5.43;100.00;102478.34;5091873;28;20513;-47
2022/01/29 03:50:25;;;;;;;40.47;22.50;;;;;;;5.45;100.00;102484.41;5091957;28;20040;-45
2022/01/29 03:52:53;;;;;;;42.22;22.15;;;;;;;5.53;100.00;102476.44;5092218;28;20060;-48
2022/01/29 03:55:21;;;;;;;38.05;20.83;;;;;;;5.49;100.00;102469.56;5092927;28;20095;-46
2022/01/29 03:57:49;;;;;;;39.95;20.67;;;;;;;5.49;100.00;102477.38;5095635;28;20518;-45
2022/01/29 04:00:17;;;;;;;38.00;20.27;;;;;;;5.45;100.00;102473.97;5095663;28;20048;-47
2022/01/29 04:02:47;;;;;;;40.60;21.83;;;;;;;5.42;100.00;102469.66;5095547;28;20444;-45
2022/01/29 04:05:16;;;;;;;39.85;20.63;;;;;;;5.50;100.00;102472.13;5094626;28;20047;-48
2022/01/29 04:07:44;;;;;;;37.67;21.75;;;;;;;5.52;100.00;102465.16;5091870;28;20132;-46
2022/01/29 04:10:13;;;;;;;42.85;22.08;;;;;;;5.46;100.00;102473.06;5092686;28;20445;-51
2022/01/29 04:12:45;;;;;;;42.33;23.50;;;;;;;5.54;100.00;102470.34;5095287;28;20044;-52
2022/01/29 04:15:13;;;;;;;43.13;22.83;;;;;;;5.54;100.00;102459.91;5091362;28;20055;-49
2022/01/29 04:17:41;;;;;;;40.22;21.60;;;;;;;5.55;100.00;102459.88;5091959;28;20068;-52
2022/01/29 04:20:12;;;;;;;44.83;23.42;;;;;;;5.54;100.00;102455.53;5094965;28;20044;-50
2022/01/29 04:22:40;;;;;;;44.35;23.30;;;;;;;5.59;100.00;102451.09;5095139;28;20071;-47
2022/01/29 04:25:09;;;;;;;48.55;24.85;;;;;;;5.53;100.00;102440.75;5095196;28;20391;-48
2022/01/29 04:27:40;;;;;;;47.92;23.70;;;;;;;5.54;100.00;102439.88;5094996;28;20052;-50
2022/01/29 04:30:13;;;;;;;49.92;25.17;;;;;;;5.51;100.00;102434.72;5094758;28;20048;-49
2022/01/29 04:32:58;;;;;;;51.92;25.23;;;;;;;5.54;100.00;102421.59;5094566;28;20076;-48
2022/01/29 04:35:29;;;;;;;56.33;27.70;;;;;;;5.54;100.00;102421.59;5094986;28;20047;-47
2022/01/29 04:37:57;;;;;;;50.03;25.10;;;;;;;5.56;100.00;102422.44;5094833;28;20036;-50
2022/01/29 04:40:25;;;;;;;54.47;26.55;;;;;;;5.61;100.00;102424.97;5095218;28;20067;-51
2022/01/29 04:42:54;;;;;;;59.95;26.77;;;;;;;5.62;100.00;102415.38;5094764;28;20044;-46
2022/01/29 04:45:22;;;;;;;60.22;27.45;;;;;;;5.64;100.00;102403.16;5094967;28;20059;-51
2022/01/29 04:47:50;;;;;;;59.88;29.08;;;;;;;5.67;100.00;102400.47;5092797;28;20056;-49
2022/01/29 04:50:18;;;;;;;63.08;28.25;;;;;;;5.67;100.00;102398.75;5091183;28;20043;-48
2022/01/29 04:52:48;;;;;;;53.10;27.52;;;;;;;5.67;100.00;102397.88;5093827;28;20138;-48
2022/01/29 04:55:16;;;;;;;60.92;28.48;;;;;;;5.71;100.00;102392.56;5094790;28;20566;-56
2022/01/29 04:57:44;;;;;;;56.90;27.63;;;;;;;5.71;100.00;102397.81;5094629;28;20465;-54
2022/01/29 05:00:19;;;;;;;68.22;26.98;;;;;;;5.73;100.00;102395.16;5094629;28;20457;-57
2022/01/29 05:02:47;;;;;;;63.05;28.75;;;;;;;5.75;100.00;102393.34;5094487;28;20123;-56
2022/01/29 05:05:16;;;;;;;64.97;28.40;;;;;;;5.79;100.00;102402.84;5094208;28;20036;-55
2022/01/29 05:07:45;;;;;;;62.00;29.35;;;;;;;5.76;100.00;102398.53;5094055;28;20048;-57
2022/01/29 05:10:15;;;;;;;66.50;28.42;;;;;;;5.78;100.00;102398.53;5094307;28;20089;-56
2022/01/29 05:12:48;;;;;;;59.92;29.00;;;;;;;5.81;100.00;102389.75;5094201;28;20044;-55
2022/01/29 05:15:23;;;;;;;66.13;29.95;;;;;;;5.80;100.00;102395.88;5094168;28;20541;-55
2022/01/29 05:28:55;;;;;;;72.03;31.00;;;;;;;5.90;100.00;102369.56;5093842;28;20043;-55
2022/01/29 05:31:23;;;;;;;64.53;29.83;;;;;;;5.92;100.00;102385.19;5093821;28;20383;-56
2022/01/29 05:33:52;;;;;;;71.10;30.65;;;;;;;5.91;100.00;102381.69;5093886;28;20063;-58
2022/01/29 05:36:20;;;;;;;74.47;31.10;;;;;;;5.90;100.00;102380.00;5090282;28;20048;-56
2022/01/29 05:38:48;;;;;;;65.63;29.88;;;;;;;5.95;100.00;102381.66;5090865;28;20043;-55
2022/01/29 05:41:17;;;;;;;63.58;27.35;;;;;;;5.97;100.00;102379.84;5093523;28;20040;-56
2022/01/29 05:43:46;;;;;;;63.85;29.23;;;;;;;5.92;100.00;102378.22;5092737;28;20062;-55
2022/01/29 05:46:15;;;;;;;65.13;29.10;;;;;;;6.04;100.00;102378.84;5093548;28;20105;-56
2022/01/29 05:48:44;;;;;;;62.63;28.05;;;;;;;6.05;100.00;102378.84;5093645;28;20127;-57
2022/01/29 05:51:13;;;;;;;64.60;28.10;;;;;;;6.03;100.00;102372.78;5093447;28;20106;-48
2022/01/29 05:53:41;;;;;;;67.85;30.52;;;;;;;6.09;100.00;102371.78;5093440;28;20078;-49
2022/01/29 05:56:09;;;;;;;64.65;28.52;;;;;;;6.07;100.00;102363.16;5093533;28;20507;-50
2022/01/29 05:58:38;;;;;;;70.30;29.70;;;;;;;6.12;100.00;102369.09;5093681;28;20141;-51
2022/01/29 06:01:06;;;;;;;69.13;30.65;;;;;;;6.11;100.00;102359.56;5090441;28;20044;-46
2022/01/29 06:03:34;;;;;;;70.88;28.67;;;;;;;6.09;100.00;102351.78;5088479;28;20044;-47
2022/01/29 06:06:03;;;;;;;67.32;29.02;;;;;;;6.12;100.00;102352.56;5093142;28;20051;-46
2022/01/29 06:08:31;;;;;;;66.30;28.50;;;;;;;6.14;100.00;102346.44;5093194;28;20044;-48
2022/01/29 06:10:59;;;;;;;69.90;27.98;;;;;;;6.16;100.00;102346.38;5093155;28;20047;-44
2022/01/29 06:13:27;;;;;;;65.95;28.38;;;;;;;6.20;100.00;102341.09;5093055;28;20135;-45
2022/01/29 06:15:56;;;;;;;63.00;28.38;;;;;;;6.29;100.00;102340.00;5092948;28;20051;-54
2022/01/29 06:18:25;;;;;;;63.15;26.60;;;;;;;6.28;100.00;102334.81;5092630;28;20044;-55
2022/01/29 06:20:56;;;;;;;65.00;28.00;;;;;;;6.25;100.00;102341.81;5092579;28;20052;-56
2022/01/29 06:23:29;;;;;;;59.67;26.17;;;;;;;6.30;100.00;102346.06;5092809;28;20429;-56
2022/01/29 06:25:58;;;;;;;61.22;27.80;;;;;;;6.32;100.00;102336.47;5089591;28;20052;-56
2022/01/29 06:28:26;;;;;;;66.90;26.50;;;;;;;6.33;100.00;102332.97;5089425;28;20039;-54
2022/01/29 06:30:56;;;;;;;58.70;26.17;;;;;;;6.40;100.00;102330.13;5093019;28;20445;-55
2022/01/29 06:33:24;;;;;;;55.47;25.38;;;;;;;6.46;100.00;102330.91;5092765;28;20105;-54
2022/01/29 06:35:52;;;;;;;56.97;25.05;;;;;;;6.45;100.00;102335.28;5092845;28;20048;-56
2022/01/29 06:38:20;;;;;;;58.85;25.92;;;;;;;6.47;100.00;102324.78;5092752;28;20453;-54
2022/01/29 06:40:49;;;;;;;57.15;25.70;;;;;;;6.48;100.00;102321.28;5093121;28;20055;-56
2022/01/29 06:43:17;;;;;;;51.80;24.08;;;;;;;6.49;100.00;102316.00;5092452;28;20094;-57
2022/01/29 06:45:47;;;;;;;54.63;24.35;;;;;;;6.54;100.00;102308.88;5092671;28;20386;-55
2022/01/29 06:48:17;;;;;;;51.95;23.92;;;;;;;6.56;100.00;102316.72;5092582;28;20056;-57
2022/01/29 06:50:45;;;;;;;54.13;24.48;;;;;;;6.57;100.00;102307.94;5092601;28;20097;-57
2022/01/29 06:53:13;;;;;;;48.95;24.80;;;;;;;6.59;100.00;102314.88;5092577;28;20048;-55
2022/01/29 06:55:41;;;;;;;47.88;23.33;;;;;;;6.64;100.00;102322.63;5092480;28;20486;-58
2022/01/29 06:58:09;;;;;;;51.03;23.40;;;;;;;6.66;100.00;102304.28;5091641;28;20052;-56
2022/01/29 07:00:57;;;;;;;44.30;21.30;;;;;;;6.74;100.00;102305.78;5088264;28;20051;-57
2022/01/29 07:03:27;;;;;;;48.72;22.40;;;;;;;6.69;100.00;102306.78;5090793;28;20564;-57
2022/01/29 07:05:55;;;;;;;44.15;22.17;;;;;;;6.70;100.00;102300.69;5092311;28;20044;-58
2022/01/29 07:08:23;;;;;;;46.85;21.80;;;;;;;6.80;100.00;102301.28;5092433;28;20164;-56
2022/01/29 07:10:52;;;;;;;44.35;21.70;;;;;;;6.73;100.00;102303.19;5092412;28;20139;-55
2022/01/29 07:13:21;;;;;;;42.90;22.20;;;;;;;6.73;100.00;102303.19;5092402;28;20050;-56
2022/01/29 07:15:51;;;;;;;47.28;23.05;;;;;;;6.76;100.00;102301.38;5091604;28;20051;-57
2022/01/29 07:18:19;;;;;;;49.33;21.98;;;;;;;6.84;100.00;102302.94;5091649;28;20058;-57
2022/01/29 07:20:48;;;;;;;44.83;20.88;;;;;;;6.86;100.00;102299.38;5092017;28;20055;-57
2022/01/29 07:23:16;;;;;;;39.28;20.17;;;;;;;6.87;100.00;102300.22;5092275;28;20132;-57
2022/01/29 07:25:44;;;;;;;37.00;19.73;;;;;;;6.91;100.00;102289.66;5092248;28;20101;-57
2022/01/29 07:28:12;;;;;;;42.28;20.63;;;;;;;6.90;100.00;102294.94;5092127;28;20407;-55
2022/01/29 07:30:41;;;;;;;41.22;20.45;;;;;;;6.88;100.00;102294.94;5091659;28;20072;-57
2022/01/29 07:33:09;;;;;;;37.58;19.95;;;;;;;6.95;100.00;102295.66;5095723;28;20066;-58
2022/01/29 07:35:37;;;;;;;40.63;21.30;;;;;;;6.90;100.00;102293.16;5092062;28;20044;-57
2022/01/29 07:38:06;;;;;;;38.03;18.75;;;;;;;6.92;100.00;102296.59;5093132;28;20474;-53
2022/01/29 07:40:34;;;;;;;37.45;17.92;;;;;;;6.91;100.00;102297.50;5096602;28;20056;-46
2022/01/29 07:43:03;;;;;;;35.55;19.05;;;;;;;6.94;100.00;102292.19;5095818;28;20062;-47
2022/01/29 07:45:31;;;;;;;34.33;18.17;;;;;;;6.97;100.00;102283.41;5092077;28;20537;-48
2022/01/29 07:47:59;;;;;;;35.00;17.25;;;;;;;7.04;100.00;102286.72;5091757;28;20048;-48
2022/01/29 07:50:27;;;;;;;33.72;16.15;;;;;;;7.05;100.00;102275.34;5095889;28;20048;-50
2022/01/29 07:52:57;;;;;;;38.25;17.80;;;;;;;7.06;100.00;102269.19;5095657;28;20085;-47
2022/01/29 07:55:26;;;;;;;34.38;16.52;;;;;;;7.07;100.00;102268.31;5095785;28;20050;-47
2022/01/29 07:57:54;;;;;;;31.20;15.98;;;;;;;7.06;100.00;102285.78;5095740;28;20040;-50
2022/01/29 08:00:22;;;;;;;34.60;16.00;;;;;;;7.06;100.00;102279.66;5095506;28;20521;-50
2022/01/29 08:02:50;;;;;;;31.77;15.60;;;;;;;7.08;100.00;102277.88;5095666;28;20052;-52
2022/01/29 08:05:19;;;;;;;30.17;15.27;;;;;;;7.07;100.00;102274.38;5095652;28;20051;-52
2022/01/29 08:07:47;;;;;;;30.60;15.25;;;;;;;7.10;100.00;102270.81;5095688;28;20055;-50
2022/01/29 08:10:15;;;;;;;29.15;14.52;;;;;;;7.10;100.00;102273.44;5091237;28;20059;-51
2022/01/29 08:12:44;;;;;;;27.55;14.02;;;;;;;7.18;100.00;102268.84;5090414;28;20414;-49
2022/01/29 08:15:12;;;;;;;24.88;12.80;;;;;;;7.26;100.00;102264.25;5095098;28;20051;-49
2022/01/29 08:17:41;;;;;;;28.60;14.93;;;;;;;7.20;100.00;102264.44;5095463;28;20048;-46
2022/01/29 08:20:09;;;;;;;27.25;14.48;;;;;;;7.24;100.00;102273.06;5095347;28;20048;-48
2022/01/29 08:22:38;;;;;;;25.52;13.75;;;;;;;7.28;100.00;102265.09;5095188;28;20090;-47
2022/01/29 08:25:07;;;;;;;29.50;14.20;;;;;;;7.30;100.00;102262.44;5091271;28;20073;-46
2022/01/29 08:27:35;;;;;;;27.98;14.00;;;;;;;7.32;100.00;102265.00;5091325;28;20052;-57
2022/01/29 08:30:05;;;;;;;23.95;13.20;;;;;;;7.32;100.00;102258.03;5095068;28;20044;-57
2022/01/29 08:32:40;;;;;;;30.67;13.70;;;;;;;7.35;100.00;102254.44;5094914;28;20044;-57
2022/01/29 08:35:09;;;;;;;24.52;13.50;;;;;;;7.45;100.00;102248.88;5095035;28;20040;-56
2022/01/29 08:37:38;;;;;;;25.92;13.05;;;;;;;7.40;100.00;102245.56;5094813;28;20040;-57
2022/01/29 08:40:07;;;;;;;24.90;13.30;;;;;;;7.43;100.00;102229.75;5095061;28;20117;-56
2022/01/29 08:42:36;;;;;;;27.30;13.68;;;;;;;7.45;100.00;102242.78;5092419;28;20105;-56
2022/01/29 08:45:07;;;;;;;23.63;12.88;;;;;;;7.48;100.00;102232.22;5091006;28;20052;-56
2022/01/29 08:47:39;;;;;;;24.58;13.05;;;;;;;7.53;100.00;102238.19;5093286;28;20048;-56
2022/01/29 08:50:08;;;;;;;27.85;13.82;;;;;;;7.53;100.00;102227.72;5094651;28;20094;-56
2022/01/29 08:52:37;;;;;;;27.50;12.82;;;;;;;7.60;100.00;102224.00;5094633;28;20406;-56
2022/01/29 08:55:07;;;;;;;26.40;13.68;;;;;;;7.55;100.00;102215.44;5094527;28;20078;-56
2022/01/29 08:57:36;;;;;;;25.33;12.68;;;;;;;7.54;100.00;102216.34;5094734;28;20391;-56
2022/01/29 09:00:09;;;;;;;24.15;13.10;;;;;;;7.56;100.00;102214.53;5094401;28;20071;-55
2022/01/29 09:02:37;;;;;;;22.67;12.05;;;;;;;7.67;100.00;102213.34;5094334;28;20051;-56
2022/01/29 09:05:06;;;;;;;23.73;12.10;;;;;;;7.63;100.00;102214.34;5094569;28;20093;-56
2022/01/29 09:07:34;;;;;;;22.92;13.07;;;;;;;7.65;100.00;102204.66;5094272;28;20490;-56
2022/01/29 09:10:03;;;;;;;25.40;12.80;;;;;;;7.65;100.00;102200.31;5094003;28;20035;-54
2022/01/29 09:12:31;;;;;;;24.08;12.90;;;;;;;7.76;100.00;102205.22;5094098;28;20048;-56
2022/01/29 09:14:59;;;;;;;23.42;12.45;;;;;;;7.75;100.00;102188.63;5094182;28;20066;-56
2022/01/29 09:17:29;;;;;;;22.10;13.10;;;;;;;7.73;100.00;102195.69;5091162;28;20056;-55
2022/01/29 09:19:57;;;;;;;22.00;12.13;;;;;;;7.73;100.00;102189.56;5090630;28;20061;-58
2022/01/29 09:22:25;;;;;;;22.10;12.38;;;;;;;7.76;100.00;102190.34;5094062;28;20047;-57
2022/01/29 09:24:53;;;;;;;23.33;12.82;;;;;;;7.73;100.00;102198.31;5093559;28;20422;-57
2022/01/29 09:27:21;;;;;;;23.50;13.35;;;;;;;7.85;100.00;102199.66;5093380;28;20040;-56
2022/01/29 09:29:49;;;;;;;21.63;12.82;;;;;;;7.84;100.00;102202.31;5093716;28;20123;-55
2022/01/29 09:32:17;;;;;;;22.85;13.32;;;;;;;7.86;100.00;102201.38;5093737;28;20084;-57
2022/01/29 09:34:47;;;;;;;28.45;12.82;;;;;;;7.86;100.00;102200.53;5093645;28;20043;-56
2022/01/29 09:37:15;;;;;;;21.90;12.85;;;;;;;7.87;100.00;102189.16;5092442;28;20130;-56
2022/01/29 09:39:43;;;;;;;23.83;13.25;;;;;;;7.85;100.00;102199.66;5093861;28;20044;-55
2022/01/29 09:42:11;;;;;;;23.45;12.95;;;;;;;7.89;100.00;102182.94;5093579;28;20422;-57
2022/01/29 09:44:41;;;;;;;22.52;12.30;;;;;;;7.93;100.00;102189.81;5093114;28;20488;-57
2022/01/29 09:47:11;;;;;;;24.40;14.15;;;;;;;7.95;100.00;102189.75;5090183;28;20048;-55
2022/01/29 09:49:39;;;;;;;25.65;13.07;;;;;;;8.00;100.00;102184.34;5091172;28;20113;-58
2022/01/29 09:52:09;;;;;;;18.90;11.80;;;;;;;8.02;100.00;102187.81;5093561;28;20047;-57
2022/01/29 09:54:37;;;;;;;24.92;13.02;;;;;;;8.12;100.00;102178.72;5090294;28;20378;-58
2022/01/29 09:57:06;;;;;;;18.58;11.35;;;;;;;8.15;100.00;102186.47;5086465;28;20139;-57
2022/01/29 09:59:34;;;;;;;19.77;10.80;;;;;;;8.11;100.00;102187.47;5093280;28;20047;-58
2022/01/29 10:02:02;;;;;;;26.17;12.77;;;;;;;8.15;100.00;102180.38;5093315;28;20048;-58
2022/01/29 10:04:46;;;;;;;18.55;11.15;;;;;;;8.19;100.00;102176.75;5093290;28;20043;-57
2022/01/29 10:07:17;;;;;;;20.20;10.95;;;;;;;8.16;100.00;102176.84;5093251;28;20048;-58
2022/01/29 10:09:45;;;;;;;17.63;10.60;;;;;;;8.17;100.00;102174.19;5092992;28;20052;-58
2022/01/29 10:12:23;;;;;;;20.52;9.77;;;;;;;8.24;100.00;102177.44;5088804;28;20052;-58
2022/01/29 10:14:56;;;;;;;15.05;9.82;;;;;;;8.28;100.00;102164.19;5089796;28;20036;-56
2022/01/29 10:17:45;;;;;;;14.73;8.82;;;;;;;8.36;100.00;102149.97;5093017;28;20048;-56
2022/01/29 10:20:17;;;;;;;15.77;8.82;;;;;;;8.31;100.00;102152.72;5092953;28;20052;-56
2022/01/29 10:22:49;;;;;;;14.43;8.00;;;;;;;8.38;100.00;102148.13;5092952;28;20114;-57
2022/01/29 10:25:20;;;;;;;12.07;7.70;;;;;;;8.38;100.00;102137.66;5092892;28;20044;-57
2022/01/29 10:28:13;;;;;;;14.65;8.13;;;;;;;8.39;100.00;102123.63;5093008;28;20047;-56
2022/01/29 10:31:02;;;;;;;14.80;7.88;;;;;;;8.41;100.00;102119.19;5092935;28;20051;-57
2022/01/29 10:33:32;;;;;;;14.90;7.95;;;;;;;8.47;100.00;102126.88;5090942;28;20058;-57
2022/01/29 10:36:01;;;;;;;13.38;8.00;;;;;;;8.45;100.00;102119.06;5087189;28;20490;-57
2022/01/29 10:38:46;;;;;;;12.63;6.55;;;;;;;8.51;100.00;102119.72;5091009;28;20055;-56
2022/01/29 10:41:20;;;;;;;14.75;6.40;;;;;;;8.57;100.00;102115.13;5092304;28;20387;-54
2022/01/29 10:43:58;;;;;;;10.57;6.30;;;;;;;8.51;100.00;102120.59;5092486;28;20056;-56
2022/01/29 10:46:28;;;;;;;14.82;6.90;;;;;;;8.59;100.00;102134.28;5092604;28;20113;-56
2022/01/29 10:48:57;;;;;;;13.35;6.53;;;;;;;8.57;100.00;102115.13;5092554;28;20056;-56
2022/01/29 10:51:26;;;;;;;13.00;6.53;;;;;;;8.60;100.00;102120.28;5092432;28;20445;-56
2022/01/29 10:54:15;;;;;;;13.98;7.28;;;;;;;8.68;100.00;102116.50;5092494;28;20044;-56
2022/01/29 10:56:56;;;;;;;11.38;6.05;;;;;;;8.70;100.00;102114.66;5092387;28;20048;-57
2022/01/29 10:59:25;;;;;;;10.55;5.82;;;;;;;8.69;100.00;102102.50;5092225;28;20043;-57
2022/01/29 11:01:56;;;;;;;10.48;5.57;;;;;;;8.69;100.00;102097.25;5091683;28;20044;-56
2022/01/29 11:04:26;;;;;;;13.40;6.28;;;;;;;8.78;100.00;102099.50;5091610;28;20051;-56
2022/01/29 11:06:57;;;;;;;10.18;5.05;;;;;;;8.83;100.00;102099.34;5091769;28;20051;-57
2022/01/29 11:09:27;;;;;;;12.38;4.97;;;;;;;8.80;100.00;102101.16;5092408;28;20047;-56
2022/01/29 11:11:58;;;;;;;9.95;4.80;;;;;;;8.85;100.00;102100.13;5092129;28;20040;-54
2022/01/29 11:14:27;;;;;;;10.73;4.82;;;;;;;8.90;100.00;102092.94;5092238;28;20055;-55
2022/01/29 11:16:56;;;;;;;8.77;4.45;;;;;;;8.92;100.00;102094.59;5092202;28;20039;-56
2022/01/29 11:19:24;;;;;;;7.65;3.63;;;;;;;8.96;100.00;102080.44;5091096;28;20050;-56
2022/01/29 11:21:54;;;;;;;7.75;3.83;;;;;;;9.02;100.00;102075.88;5092271;28;20401;-56
2022/01/29 11:24:24;;;;;;;8.32;3.25;;;;;;;9.02;100.00;102055.72;5092241;28;20143;-55
2022/01/29 11:26:54;;;;;;;9.82;3.60;;;;;;;9.02;100.00;102076.72;5092242;28;20051;-56
2022/01/29 11:29:24;;;;;;;9.35;3.20;;;;;;;9.05;100.00;102055.63;5092228;28;20090;-57
2022/01/29 11:32:27;;;;;;;10.93;4.07;;;;;;;9.05;100.00;102052.13;5090846;28;20051;-56